Time;durP1;ratioP1;P1;durP2;ratioP2;P2;SDS_P1;SDS_P2;PMS_P1;PMS_P2;Temp;Humidity;BMP_temperature;BMP_pressure;BME280_temperature;BME280_humidity;BME280_pressure;Samples;Min_cycle;Max_cycle;Signal;HPM_P1;HPM_P2
2023/07/21 00:02:25;;;;;;;4.13;2.05;;;12.70;99.90;;;;;;5121762;27;20117;-64
2023/07/21 00:04:51;;;;;;;3.83;2.10;;;12.80;99.90;;;;;;5135904;27;20129;-64
2023/07/21 00:07:17;;;;;;;3.13;2.30;;;12.80;99.90;;;;;;5144624;27;20117;-64
2023/07/21 00:09:43;;;;;;;3.88;2.25;;;12.80;99.90;;;;;;5134010;27;20414;-63
2023/07/21 00:12:09;;;;;;;4.28;2.60;;;12.80;99.90;;;;;;5124548;27;20041;-63
2023/07/21 00:14:35;;;;;;;5.22;2.10;;;12.80;99.90;;;;;;5141958;27;20039;-63
2023/07/21 00:17:04;;;;;;;2.60;2.33;;;12.80;99.90;;;;;;5132639;27;20122;-62
2023/07/21 00:19:30;;;;;;;2.80;1.98;;;12.80;99.90;;;;;;5142039;27;20043;-64
2023/07/21 00:21:56;;;;;;;5.07;2.08;;;12.80;99.90;;;;;;5118383;27;20061;-62
2023/07/21 00:24:22;;;;;;;3.55;2.47;;;12.80;99.90;;;;;;5123207;27;20091;-64
2023/07/21 00:26:47;;;;;;;3.03;2.00;;;12.80;99.90;;;;;;5132420;27;20046;-63
2023/07/21 00:29:13;;;;;;;2.58;2.15;;;12.80;99.90;;;;;;5121605;27;20046;-64
2023/07/21 00:31:39;;;;;;;2.65;2.10;;;12.80;99.90;;;;;;5123054;27;20042;-63
2023/07/21 00:34:05;;;;;;;3.60;2.25;;;12.80;99.90;;;;;;5121523;27;20031;-63
2023/07/21 00:36:31;;;;;;;3.38;2.28;;;12.90;99.90;;;;;;5114188;27;20119;-63
2023/07/21 00:38:58;;;;;;;3.25;2.15;;;12.90;99.90;;;;;;5117789;27;20039;-64
2023/07/21 00:41:25;;;;;;;4.57;2.40;;;12.90;99.90;;;;;;5138589;27;20043;-62
2023/07/21 00:43:51;;;;;;;3.38;2.38;;;12.90;99.90;;;;;;5123336;27;20038;-63
2023/07/21 00:46:17;;;;;;;4.50;2.33;;;12.90;99.90;;;;;;5120935;27;20099;-63
2023/07/21 00:48:43;;;;;;;3.30;2.05;;;12.90;99.90;;;;;;5115995;27;20043;-63
2023/07/21 00:51:10;;;;;;;5.03;2.35;;;12.90;99.90;;;;;;5116224;27;20054;-63
2023/07/21 00:53:36;;;;;;;4.32;2.30;;;12.80;99.90;;;;;;5136908;27;20060;-63
2023/07/21 00:56:02;;;;;;;3.13;2.22;;;12.80;99.90;;;;;;5150810;27;20126;-63
2023/07/21 00:58:30;;;;;;;2.20;1.80;;;12.70;99.90;;;;;;5132286;27;20053;-62
2023/07/21 01:00:56;;;;;;;4.68;2.28;;;12.70;99.90;;;;;;5128436;27;20463;-63
2023/07/21 01:03:22;;;;;;;3.33;1.85;;;12.70;99.90;;;;;;5120950;27;20111;-63
2023/07/21 01:05:51;;;;;;;4.47;2.13;;;12.60;99.90;;;;;;5134800;27;20167;-65
2023/07/21 01:08:19;;;;;;;4.10;2.10;;;12.60;99.90;;;;;;5115174;27;20174;-63
2023/07/21 01:10:47;;;;;;;3.25;2.28;;;12.60;99.90;;;;;;5117123;27;20045;-64
2023/07/21 01:13:13;;;;;;;3.17;2.15;;;12.60;99.90;;;;;;5120273;27;20046;-63
2023/07/21 01:15:48;;;;;;;3.80;2.30;;;12.60;99.90;;;;;;5121274;27;20042;-64
2023/07/21 01:18:16;;;;;;;2.50;1.88;;;12.60;99.90;;;;;;5138676;27;20035;-63
2023/07/21 01:20:43;;;;;;;2.47;2.08;;;12.60;99.90;;;;;;5123410;27;20097;-64
2023/07/21 01:23:34;;;;;;;3.42;2.10;;;12.60;99.90;;;;;;5123781;27;20431;-63
2023/07/21 01:26:00;;;;;;;2.55;2.17;;;12.60;99.90;;;;;;5118555;27;20043;-64
2023/07/21 01:28:27;;;;;;;3.95;2.40;;;12.50;99.90;;;;;;5150949;27;20358;-64
2023/07/21 01:30:54;;;;;;;3.92;2.50;;;12.50;99.90;;;;;;5128765;27;20042;-63
2023/07/21 01:33:20;;;;;;;4.03;2.45;;;12.40;99.90;;;;;;5099486;27;20131;-63
2023/07/21 01:35:50;;;;;;;6.50;2.72;;;12.40;99.90;;;;;;5134281;27;20079;-64
2023/07/21 01:38:18;;;;;;;4.05;2.63;;;12.40;99.90;;;;;;5122387;27;20039;-64
2023/07/21 01:40:45;;;;;;;4.15;2.58;;;12.40;99.90;;;;;;5129225;27;20382;-63
2023/07/21 01:43:14;;;;;;;3.67;2.53;;;12.30;99.90;;;;;;5126740;27;20087;-64
2023/07/21 01:45:40;;;;;;;3.53;2.72;;;12.30;99.90;;;;;;5144716;27;20064;-63
2023/07/21 01:48:07;;;;;;;4.65;2.42;;;12.30;99.90;;;;;;5117168;27;20043;-62
2023/07/21 01:50:34;;;;;;;3.67;2.35;;;12.30;99.90;;;;;;5112954;28;20063;-63
2023/07/21 01:53:05;;;;;;;3.33;2.22;;;12.30;99.90;;;;;;5116744;27;20071;-63
2023/07/21 01:55:38;;;;;;;2.65;2.40;;;12.30;99.90;;;;;;5118110;27;20035;-63
2023/07/21 01:58:07;;;;;;;3.08;2.33;;;12.30;99.90;;;;;;5117015;28;20118;-64
2023/07/21 02:00:36;;;;;;;3.50;2.88;;;12.30;99.90;;;;;;5098252;27;20138;-63
2023/07/21 02:03:04;;;;;;;3.95;3.03;;;12.40;99.90;;;;;;5116225;28;20049;-63
2023/07/21 02:05:29;;;;;;;5.40;3.00;;;12.30;99.90;;;;;;5111271;27;20047;-63
2023/07/21 02:07:56;;;;;;;3.95;2.80;;;12.40;99.90;;;;;;5116969;28;20080;-63
2023/07/21 02:10:22;;;;;;;4.57;3.00;;;12.40;99.90;;;;;;5130547;27;20051;-63
2023/07/21 02:12:48;;;;;;;5.55;3.28;;;12.40;99.90;;;;;;5132695;27;20035;-63
2023/07/21 02:15:14;;;;;;;4.03;3.00;;;12.40;99.90;;;;;;5118791;28;20095;-63
2023/07/21 02:17:40;;;;;;;3.85;2.75;;;12.40;99.90;;;;;;5116636;27;20050;-64
2023/07/21 02:20:09;;;;;;;4.28;2.67;;;12.50;99.90;;;;;;5120619;27;20047;-63
2023/07/21 02:22:40;;;;;;;4.28;3.13;;;12.40;99.90;;;;;;5131095;27;20047;-64
2023/07/21 02:25:09;;;;;;;4.18;2.75;;;12.40;99.90;;;;;;5130228;27;20134;-63
2023/07/21 02:27:35;;;;;;;5.22;2.67;;;12.40;99.90;;;;;;5116260;27;20047;-63
2023/07/21 02:30:02;;;;;;;6.22;3.15;;;12.40;99.90;;;;;;5117544;28;20118;-64
2023/07/21 02:32:30;;;;;;;4.72;3.08;;;12.40;99.90;;;;;;5117961;27;20039;-63
2023/07/21 02:34:59;;;;;;;5.40;3.10;;;12.40;99.90;;;;;;5112959;27;20068;-62
2023/07/21 02:37:25;;;;;;;3.63;2.67;;;12.40;99.90;;;;;;5101784;28;20039;-63
2023/07/21 02:39:50;;;;;;;6.25;2.83;;;12.30;99.90;;;;;;5132961;27;20031;-63
2023/07/21 02:42:17;;;;;;;3.95;2.80;;;12.30;99.90;;;;;;5117548;27;20042;-63
2023/07/21 02:44:43;;;;;;;3.30;2.92;;;12.30;99.90;;;;;;5116624;28;20088;-63
2023/07/21 02:47:09;;;;;;;4.82;2.95;;;12.30;99.90;;;;;;5116335;27;20086;-65
2023/07/21 02:49:34;;;;;;;4.82;3.60;;;12.30;99.90;;;;;;5141118;27;20031;-63
2023/07/21 02:52:00;;;;;;;3.45;2.90;;;12.20;99.90;;;;;;5122130;27;20439;-64
2023/07/21 02:54:25;;;;;;;3.75;3.03;;;12.30;99.90;;;;;;5115160;28;20039;-63
2023/07/21 02:56:51;;;;;;;4.63;3.00;;;12.20;99.90;;;;;;5120081;27;20027;-62
2023/07/21 02:59:17;;;;;;;5.05;3.40;;;12.20;99.90;;;;;;5136469;27;20063;-64
2023/07/21 03:01:54;;;;;;;5.32;3.47;;;12.20;99.90;;;;;;5122634;27;20114;-63
2023/07/21 03:04:22;;;;;;;4.70;3.17;;;12.20;99.90;;;;;;5120258;27;20111;-62
2023/07/21 03:06:48;;;;;;;5.55;3.47;;;12.20;99.90;;;;;;5118452;27;20460;-64
2023/07/21 03:09:14;;;;;;;5.10;3.35;;;12.10;99.90;;;;;;5139105;27;20170;-63
2023/07/21 03:11:40;;;;;;;3.47;3.17;;;12.10;99.90;;;;;;5121405;27;20023;-62
2023/07/21 03:14:06;;;;;;;6.00;3.17;;;12.10;99.90;;;;;;5122437;27;20034;-64
2023/07/21 03:16:32;;;;;;;5.18;2.90;;;12.10;99.90;;;;;;5126451;27;20039;-63
2023/07/21 03:18:57;;;;;;;3.83;3.33;;;12.10;99.90;;;;;;5119374;27;20099;-63
2023/07/21 03:21:23;;;;;;;3.47;3.17;;;12.00;99.90;;;;;;5123533;27;20474;-63
2023/07/21 03:23:49;;;;;;;4.07;3.20;;;12.00;99.90;;;;;;5135020;27;20098;-64
2023/07/21 03:26:15;;;;;;;3.80;3.38;;;12.00;99.90;;;;;;5122123;27;20084;-63
2023/07/21 03:28:40;;;;;;;4.25;3.30;;;12.00;99.90;;;;;;5117801;27;20042;-63
2023/07/21 03:31:09;;;;;;;3.88;3.40;;;12.00;99.90;;;;;;5125069;27;20039;-63
2023/07/21 03:33:34;;;;;;;4.63;3.53;;;11.90;99.90;;;;;;5132070;27;20078;-63
2023/07/21 03:36:02;;;;;;;4.70;3.20;;;11.90;99.90;;;;;;5133180;27;20124;-64
2023/07/21 03:38:29;;;;;;;3.55;3.20;;;11.90;99.90;;;;;;5129357;27;20460;-63
2023/07/21 03:41:10;;;;;;;4.05;3.65;;;11.90;99.90;;;;;;5128356;27;20053;-63
2023/07/21 03:43:39;;;;;;;4.50;3.78;;;11.90;99.90;;;;;;5120787;27;20039;-63
2023/07/21 03:46:06;;;;;;;4.75;3.60;;;11.90;99.90;;;;;;5115825;27;20120;-64
2023/07/21 03:48:33;;;;;;;5.40;3.28;;;11.90;99.90;;;;;;5151666;27;20095;-64
2023/07/21 03:51:03;;;;;;;4.82;3.90;;;11.90;99.90;;;;;;5125195;27;20499;-63
2023/07/21 03:53:29;;;;;;;7.35;4.13;;;11.90;99.90;;;;;;5129843;27;20091;-63
2023/07/21 03:55:55;;;;;;;5.05;3.60;;;11.90;99.90;;;;;;5118748;27;20035;-63
2023/07/21 03:58:21;;;;;;;5.05;3.67;;;12.00;99.90;;;;;;5140071;27;20510;-64
2023/07/21 04:00:47;;;;;;;6.65;4.40;;;12.00;99.90;;;;;;5127616;27;20166;-63
2023/07/21 04:03:14;;;;;;;4.80;4.30;;;12.00;99.90;;;;;;5121874;27;20452;-64
2023/07/21 04:05:40;;;;;;;5.97;4.25;;;12.00;99.90;;;;;;5114925;27;20041;-63
2023/07/21 04:08:06;;;;;;;6.55;4.47;;;12.00;99.90;;;;;;5121831;27;20066;-64
2023/07/21 04:10:32;;;;;;;6.45;4.40;;;12.10;99.90;;;;;;5149980;27;20543;-64
2023/07/21 04:12:58;;;;;;;6.22;4.20;;;12.10;99.90;;;;;;5138068;27;20022;-63
2023/07/21 04:15:25;;;;;;;5.72;4.57;;;12.10;99.90;;;;;;5127785;27;20043;-64
2023/07/21 04:17:52;;;;;;;6.10;4.45;;;12.10;99.90;;;;;;5119508;27;20079;-64
2023/07/21 04:20:18;;;;;;;6.47;4.10;;;12.20;99.90;;;;;;5144504;27;20045;-63
2023/07/21 04:22:45;;;;;;;6.13;3.95;;;12.20;99.90;;;;;;5122528;27;20043;-63
2023/07/21 04:25:11;;;;;;;4.20;3.75;;;12.30;99.90;;;;;;5124198;27;20118;-62
2023/07/21 04:27:37;;;;;;;4.68;4.28;;;12.30;99.90;;;;;;5118699;27;20121;-64
2023/07/21 04:30:03;;;;;;;5.93;4.30;;;12.30;99.90;;;;;;5114146;27;20043;-63
2023/07/21 04:32:30;;;;;;;4.43;4.00;;;12.30;99.90;;;;;;5118842;27;20046;-64
2023/07/21 04:34:56;;;;;;;6.07;4.05;;;12.30;99.90;;;;;;5135965;27;20031;-64
2023/07/21 04:37:22;;;;;;;4.40;4.00;;;12.30;99.90;;;;;;5118861;27;20086;-62
2023/07/21 04:39:47;;;;;;;4.38;3.97;;;12.40;99.90;;;;;;5114234;27;20083;-62
2023/07/21 04:42:13;;;;;;;6.97;4.65;;;12.40;99.90;;;;;;5120146;27;20039;-63
2023/07/21 04:44:39;;;;;;;5.25;4.45;;;12.50;99.90;;;;;;5126144;27;20034;-63
2023/07/21 04:47:05;;;;;;;4.53;4.13;;;12.60;99.90;;;;;;5119646;27;20171;-62
2023/07/21 04:49:31;;;;;;;5.25;4.57;;;12.60;99.90;;;;;;5145598;27;20046;-63
2023/07/21 04:52:00;;;;;;;5.10;3.90;;;12.70;99.90;;;;;;5125490;27;20037;-63
2023/07/21 04:54:26;;;;;;;5.85;4.47;;;12.80;99.90;;;;;;5115917;27;20034;-64
2023/07/21 04:56:52;;;;;;;6.05;4.10;;;12.80;99.90;;;;;;5116930;27;20047;-63
2023/07/21 04:59:21;;;;;;;4.82;4.07;;;12.90;99.90;;;;;;5125053;27;20110;-64
2023/07/21 05:01:47;;;;;;;5.65;4.40;;;13.00;99.90;;;;;;5120461;27;20043;-63
2023/07/21 05:04:19;;;;;;;5.35;4.10;;;13.10;99.90;;;;;;5116241;27;20091;-63
2023/07/21 05:06:47;;;;;;;5.90;4.70;;;13.10;99.90;;;;;;5100603;27;20133;-64
2023/07/21 05:09:14;;;;;;;4.85;4.32;;;13.20;99.90;;;;;;5122822;27;20035;-62
2023/07/21 05:11:42;;;;;;;5.75;4.50;;;13.30;99.90;;;;;;5134306;27;20038;-62
2023/07/21 05:14:08;;;;;;;4.93;4.45;;;13.40;99.90;;;;;;5124516;27;20035;-64
2023/07/21 05:16:37;;;;;;;7.05;4.85;;;13.50;99.90;;;;;;5151108;27;20034;-63
2023/07/21 05:19:03;;;;;;;6.15;4.63;;;13.50;99.90;;;;;;5117037;27;20057;-64
2023/07/21 05:21:29;;;;;;;6.38;4.80;;;13.60;99.90;;;;;;5099009;27;20134;-63
2023/07/21 05:23:55;;;;;;;8.32;4.55;;;13.60;99.90;;;;;;5113971;28;20127;-63
2023/07/21 05:26:23;;;;;;;6.95;5.05;;;13.70;99.90;;;;;;5115946;27;20039;-63
2023/07/21 05:28:54;;;;;;;6.20;4.75;;;13.70;99.90;;;;;;5149311;27;20575;-63
2023/07/21 05:31:20;;;;;;;6.72;4.90;;;13.70;99.90;;;;;;5121798;27;20047;-64
2023/07/21 05:33:46;;;;;;;6.45;4.70;;;13.70;99.90;;;;;;5146129;27;20039;-63
2023/07/21 05:36:12;;;;;;;5.50;4.82;;;13.70;99.90;;;;;;5150618;27;20489;-63
2023/07/21 05:38:38;;;;;;;5.15;4.57;;;13.70;99.90;;;;;;5115317;27;20039;-63
2023/07/21 05:41:05;;;;;;;5.55;4.45;;;13.80;99.90;;;;;;5113430;27;20045;-63
2023/07/21 05:43:31;;;;;;;5.93;4.70;;;13.90;99.90;;;;;;5114800;27;20035;-63
2023/07/21 05:45:56;;;;;;;7.07;4.70;;;14.00;99.90;;;;;;5112978;28;20039;-63
2023/07/21 05:48:24;;;;;;;5.20;4.40;;;14.20;99.90;;;;;;5139233;27;20363;-63
2023/07/21 05:50:51;;;;;;;5.20;4.50;;;14.40;99.90;;;;;;5120980;27;20049;-64
2023/07/21 05:53:16;;;;;;;5.28;4.38;;;14.50;99.90;;;;;;5129226;27;20496;-63
2023/07/21 05:55:42;;;;;;;6.45;4.60;;;14.70;99.90;;;;;;5126534;27;20034;-64
2023/07/21 05:58:08;;;;;;;7.88;4.78;;;14.90;99.90;;;;;;5132421;27;20062;-64
2023/07/21 06:00:38;;;;;;;7.18;4.35;;;15.10;99.90;;;;;;5133065;27;20126;-63
2023/07/21 06:03:05;;;;;;;6.40;4.43;;;15.30;99.90;;;;;;5145643;27;20043;-64
2023/07/21 06:05:32;;;;;;;6.85;4.22;;;15.50;99.90;;;;;;5132969;27;20109;-63
2023/07/21 06:07:57;;;;;;;4.68;4.28;;;15.70;99.90;;;;;;5124687;27;20043;-63
2023/07/21 06:10:23;;;;;;;5.03;4.00;;;15.80;99.90;;;;;;5118168;28;20094;-64
2023/07/21 06:12:49;;;;;;;6.07;3.92;;;16.00;99.90;;;;;;5117191;27;20986;-64
2023/07/21 06:15:14;;;;;;;4.43;3.60;;;16.20;99.90;;;;;;5120792;28;20121;-64
2023/07/21 06:17:40;;;;;;;5.95;3.42;;;16.30;99.90;;;;;;5130845;27;20755;-64
2023/07/21 06:20:09;;;;;;;6.03;3.30;;;16.50;99.90;;;;;;5115933;28;20525;-63
2023/07/21 06:22:35;;;;;;;8.40;3.50;;;16.60;99.90;;;;;;5127181;27;20071;-63
2023/07/21 06:25:03;;;;;;;4.88;3.22;;;16.60;99.90;;;;;;5121199;27;20054;-63
2023/07/21 06:27:29;;;;;;;7.97;3.65;;;16.60;99.90;;;;;;5121331;27;20062;-63
2023/07/21 06:29:55;;;;;;;5.68;3.10;;;16.50;99.90;;;;;;5119163;28;20047;-62
2023/07/21 06:32:21;;;;;;;4.35;3.20;;;16.50;99.90;;;;;;5124997;27;20090;-62
2023/07/21 06:34:47;;;;;;;5.10;3.40;;;16.50;99.90;;;;;;5122841;27;20034;-63
2023/07/21 06:37:13;;;;;;;6.07;3.08;;;16.50;99.90;;;;;;5155221;27;20133;-62
2023/07/21 06:39:38;;;;;;;7.53;3.60;;;16.50;99.90;;;;;;5110897;27;20072;-63
2023/07/21 06:42:05;;;;;;;4.75;3.80;;;16.50;99.90;;;;;;5131485;27;20039;-63
2023/07/21 06:44:31;;;;;;;5.40;3.97;;;16.50;99.90;;;;;;5155418;27;20188;-63
2023/07/21 06:46:57;;;;;;;6.97;3.35;;;16.50;99.90;;;;;;5121948;27;20050;-63
2023/07/21 06:49:23;;;;;;;8.63;3.35;;;16.70;99.90;;;;;;5123858;27;20405;-62
2023/07/21 06:51:49;;;;;;;5.90;3.63;;;16.80;99.90;;;;;;5136628;27;20400;-63
2023/07/21 06:54:14;;;;;;;5.22;3.03;;;17.10;99.90;;;;;;5120964;27;20038;-63
2023/07/21 06:56:40;;;;;;;7.18;3.10;;;17.30;99.90;;;;;;5116165;27;20035;-63
2023/07/21 06:59:06;;;;;;;5.15;2.80;;;17.50;99.90;;;;;;5124800;27;20485;-63
2023/07/21 07:01:31;;;;;;;3.80;2.70;;;17.70;99.90;;;;;;5120079;27;20055;-64
2023/07/21 07:03:58;;;;;;;6.20;3.35;;;17.80;99.90;;;;;;5120731;27;20146;-63
2023/07/21 07:06:24;;;;;;;4.50;2.67;;;17.90;99.90;;;;;;5135216;27;20054;-64
2023/07/21 07:08:50;;;;;;;5.30;2.78;;;18.00;99.90;;;;;;5154920;27;20567;-63
2023/07/21 07:11:16;;;;;;;3.55;2.38;;;18.10;99.90;;;;;;5131628;27;20031;-63
2023/07/21 07:13:41;;;;;;;3.92;2.08;;;18.20;99.90;;;;;;5116307;27;20061;-64
2023/07/21 07:16:07;;;;;;;2.60;2.40;;;18.30;99.90;;;;;;5115747;27;20031;-64
2023/07/21 07:18:32;;;;;;;5.03;2.90;;;18.40;99.90;;;;;;5115756;27;20071;-64
2023/07/21 07:20:58;;;;;;;4.65;1.75;;;18.60;99.90;;;;;;5118503;27;20102;-63
2023/07/21 07:23:24;;;;;;;4.35;1.83;;;18.80;99.90;;;;;;5109869;27;20075;-64
2023/07/21 07:25:52;;;;;;;2.00;1.48;;;18.90;99.90;;;;;;5136146;27;20038;-64
2023/07/21 07:28:19;;;;;;;1.90;1.30;;;18.90;99.90;;;;;;5136116;27;20091;-65
2023/07/21 07:30:45;;;;;;;2.13;1.45;;;19.00;99.90;;;;;;5129490;27;20035;-64
2023/07/21 07:33:14;;;;;;;2.35;1.60;;;19.20;99.90;;;;;;5123450;27;20047;-64
2023/07/21 07:35:50;;;;;;;4.28;1.60;;;19.40;99.90;;;;;;5135641;27;20099;-65
2023/07/21 07:38:23;;;;;;;2.08;1.88;;;19.40;99.90;;;;;;5115878;27;20556;-64
2023/07/21 07:40:49;;;;;;;3.75;1.80;;;19.50;99.90;;;;;;5123887;27;20130;-64
2023/07/21 07:43:15;;;;;;;2.67;1.90;;;19.60;99.90;;;;;;5118157;27;20460;-65
2023/07/21 07:45:41;;;;;;;2.28;1.85;;;19.50;99.90;;;;;;5133292;27;20524;-64
2023/07/21 07:48:09;;;;;;;4.32;1.73;;;19.50;99.90;;;;;;5134226;27;20481;-64
2023/07/21 07:50:39;;;;;;;4.22;1.70;;;19.60;99.90;;;;;;5135583;27;20039;-64
2023/07/21 07:53:06;;;;;;;2.08;1.73;;;19.60;99.90;;;;;;5152289;27;20026;-65
2023/07/21 07:55:42;;;;;;;3.13;1.88;;;19.70;99.90;;;;;;5120246;27;20047;-63
2023/07/21 07:58:08;;;;;;;3.33;1.90;;;19.50;99.90;;;;;;5136158;27;20035;-64
2023/07/21 08:00:36;;;;;;;2.60;2.13;;;19.50;99.90;;;;;;5119039;27;20054;-64
2023/07/21 08:03:04;;;;;;;3.78;2.28;;;19.70;99.90;;;;;;5121003;27;20081;-63
2023/07/21 08:05:30;;;;;;;4.47;2.22;;;19.70;99.90;;;;;;5121385;27;20047;-65
2023/07/21 08:07:58;;;;;;;3.00;2.20;;;19.80;99.90;;;;;;5115079;27;20043;-64
2023/07/21 08:10:27;;;;;;;3.38;1.95;;;20.00;99.90;;;;;;5114673;27;20121;-64
2023/07/21 08:12:54;;;;;;;2.97;2.15;;;19.90;99.90;;;;;;5111658;27;20087;-64
2023/07/21 08:15:20;;;;;;;2.78;1.90;;;19.60;99.90;;;;;;5131682;27;20035;-64
2023/07/21 08:17:45;;;;;;;3.58;2.10;;;19.70;99.90;;;;;;5118009;27;20035;-64
2023/07/21 08:20:11;;;;;;;3.55;3.05;;;20.00;99.90;;;;;;5125588;27;20051;-65
2023/07/21 08:22:37;;;;;;;3.15;2.50;;;20.30;99.90;;;;;;5139436;27;20050;-64
2023/07/21 08:25:05;;;;;;;2.55;2.22;;;20.50;99.90;;;;;;5121797;27;20055;-64
2023/07/21 08:27:33;;;;;;;4.05;2.30;;;20.60;99.90;;;;;;5127328;27;20035;-64
2023/07/21 08:29:59;;;;;;;3.88;2.70;;;20.80;99.90;;;;;;5096548;27;20139;-64
2023/07/21 08:32:25;;;;;;;4.25;2.40;;;20.80;99.90;;;;;;5115548;27;20762;-65
2023/07/21 08:34:51;;;;;;;3.05;2.35;;;20.50;99.90;;;;;;5124388;27;20035;-64
2023/07/21 08:37:17;;;;;;;3.42;2.20;;;20.40;99.90;;;;;;5121318;27;20031;-64
2023/07/21 08:39:43;;;;;;;2.55;2.08;;;20.20;99.90;;;;;;5130573;27;20089;-64
2023/07/21 08:42:12;;;;;;;2.60;2.28;;;20.20;99.90;;;;;;5117555;27;20047;-64
2023/07/21 08:44:38;;;;;;;7.22;1.80;;;20.40;99.90;;;;;;5134480;27;20031;-64
2023/07/21 08:47:04;;;;;;;1.85;1.70;;;20.60;99.90;;;;;;5152945;27;20066;-64
2023/07/21 08:49:30;;;;;;;2.72;1.80;;;20.90;99.90;;;;;;5125228;27;20092;-64
2023/07/21 08:51:57;;;;;;;2.45;1.73;;;21.10;99.90;;;;;;5115372;27;20096;-64
2023/07/21 08:54:22;;;;;;;2.22;2.00;;;21.20;99.80;;;;;;5104538;27;20035;-64
2023/07/21 08:56:48;;;;;;;3.88;2.15;;;21.40;99.90;;;;;;5113196;27;20039;-64
2023/07/21 08:59:14;;;;;;;4.07;2.58;;;21.70;99.20;;;;;;5132099;27;20078;-64
2023/07/21 09:01:39;;;;;;;2.85;2.28;;;21.90;99.00;;;;;;5126597;27;20057;-63
2023/07/21 09:04:23;;;;;;;2.10;1.85;;;21.90;98.00;;;;;;5112582;27;20043;-64
2023/07/21 09:06:50;;;;;;;4.45;1.30;;;21.80;95.00;;;;;;5113571;27;20043;-63
2023/07/21 09:09:23;;;;;;;2.30;1.33;;;21.90;96.10;;;;;;5139933;27;20034;-64
2023/07/21 09:11:50;;;;;;;4.03;1.60;;;22.00;95.40;;;;;;5121652;27;20119;-64
2023/07/21 09:14:16;;;;;;;1.98;1.40;;;22.20;96.60;;;;;;5117719;27;20490;-65
2023/07/21 09:16:45;;;;;;;2.20;1.60;;;22.10;95.50;;;;;;5133912;27;20043;-64
2023/07/21 09:19:11;;;;;;;3.10;1.35;;;22.10;95.30;;;;;;5139681;27;20041;-65
2023/07/21 09:21:37;;;;;;;2.25;1.30;;;22.00;94.60;;;;;;5132868;27;20043;-65
2023/07/21 09:24:05;;;;;;;1.35;0.80;;;22.00;95.10;;;;;;5126664;27;20093;-64
2023/07/21 09:26:32;;;;;;;0.93;0.70;;;22.00;94.70;;;;;;5116773;27;20031;-64
2023/07/21 09:28:58;;;;;;;1.02;0.57;;;22.00;93.00;;;;;;5116895;27;20035;-65
2023/07/21 09:31:28;;;;;;;0.90;0.70;;;21.90;91.50;;;;;;5131527;27;20039;-64
2023/07/21 09:33:54;;;;;;;1.10;0.88;;;21.70;91.60;;;;;;5115327;27;20046;-64
2023/07/21 09:36:22;;;;;;;0.80;0.70;;;21.90;92.30;;;;;;5123536;27;20073;-64
2023/07/21 09:38:50;;;;;;;1.10;0.70;;;21.90;91.90;;;;;;5133711;27;20046;-64
2023/07/21 09:41:24;;;;;;;0.75;0.75;;;21.90;92.40;;;;;;5112829;27;20043;-65
2023/07/21 09:43:51;;;;;;;1.13;0.98;;;21.70;92.00;;;;;;5126758;27;20113;-64
2023/07/21 09:46:17;;;;;;;1.95;1.20;;;21.60;92.80;;;;;;5122160;27;20051;-64
2023/07/21 09:48:44;;;;;;;2.55;1.00;;;21.70;93.20;;;;;;5112714;27;20042;-64
2023/07/21 09:51:10;;;;;;;2.08;1.00;;;21.90;93.20;;;;;;5112909;27;20111;-65
2023/07/21 09:53:40;;;;;;;1.55;1.02;;;21.90;92.90;;;;;;5131398;27;20420;-64
2023/07/21 09:56:11;;;;;;;1.73;1.00;;;21.90;92.00;;;;;;5112569;27;20035;-65
2023/07/21 09:59:00;;;;;;;1.90;1.10;;;22.00;92.70;;;;;;5103274;27;20058;-64
2023/07/21 10:01:26;;;;;;;1.15;0.80;;;21.90;92.50;;;;;;5133417;27;20571;-64
2023/07/21 10:03:52;;;;;;;1.00;0.90;;;21.60;92.60;;;;;;5133111;27;20138;-65
2023/07/21 10:06:19;;;;;;;1.30;1.20;;;21.30;92.50;;;;;;5136492;27;20393;-63
2023/07/21 10:08:45;;;;;;;1.80;1.25;;;21.20;93.20;;;;;;5117479;27;20047;-64
2023/07/21 10:11:12;;;;;;;2.05;1.33;;;21.00;94.20;;;;;;5116782;27;20114;-64
2023/07/21 10:13:46;;;;;;;2.38;1.60;;;20.80;94.60;;;;;;5116915;27;20514;-65
2023/07/21 10:16:13;;;;;;;2.22;1.55;;;20.70;95.30;;;;;;5120572;27;20433;-64
2023/07/21 10:19:08;;;;;;;1.60;1.50;;;20.90;95.90;;;;;;5137005;27;20042;-64
2023/07/21 10:21:54;;;;;;;3.33;2.17;;;21.20;96.20;;;;;;5116935;27;20549;-64
2023/07/21 10:24:27;;;;;;;1.98;1.73;;;21.50;94.60;;;;;;5116652;27;20047;-64
2023/07/21 10:26:55;;;;;;;2.15;1.67;;;21.70;95.00;;;;;;5126787;27;20113;-64
2023/07/21 10:29:20;;;;;;;1.67;1.58;;;22.00;94.80;;;;;;5124608;27;20067;-65
2023/07/21 10:31:54;;;;;;;2.00;1.23;;;22.30;95.10;;;;;;5116446;27;20194;-64
2023/07/21 10:34:26;;;;;;;2.65;0.90;;;22.80;94.20;;;;;;5116641;27;20035;-64
2023/07/21 10:36:51;;;;;;;1.35;1.05;;;23.00;92.50;;;;;;5117778;27;20072;-63
2023/07/21 10:39:23;;;;;;;1.92;1.02;;;23.30;92.10;;;;;;5116286;27;20517;-64
2023/07/21 10:41:50;;;;;;;1.50;0.90;;;23.40;91.00;;;;;;5116300;27;20103;-64
2023/07/21 10:44:17;;;;;;;1.75;0.90;;;23.30;90.70;;;;;;5134606;27;20285;-64
2023/07/21 10:46:47;;;;;;;1.17;0.73;;;23.00;90.30;;;;;;5116652;27;20486;-64
2023/07/21 10:49:15;;;;;;;0.90;0.80;;;22.70;88.60;;;;;;5149739;27;20397;-64
2023/07/21 10:51:42;;;;;;;0.70;0.70;;;22.50;88.90;;;;;;5110207;27;20035;-64
2023/07/21 10:54:09;;;;;;;0.90;0.70;;;22.70;89.30;;;;;;5115900;27;20054;-64
2023/07/21 10:56:42;;;;;;;0.73;0.70;;;22.50;88.10;;;;;;5116251;27;20099;-63
2023/07/21 10:59:12;;;;;;;2.20;0.80;;;22.40;88.60;;;;;;5117633;27;20035;-65
2023/07/21 11:01:56;;;;;;;1.48;0.90;;;22.50;90.20;;;;;;5122967;27;20066;-65
2023/07/21 11:04:23;;;;;;;0.98;0.73;;;22.40;89.10;;;;;;5136687;27;20050;-64
2023/07/21 11:06:54;;;;;;;0.90;0.80;;;22.40;90.30;;;;;;5136467;27;20043;-64
2023/07/21 11:09:21;;;;;;;1.17;0.77;;;22.50;90.20;;;;;;5135717;27;20038;-64
2023/07/21 11:11:49;;;;;;;1.95;0.82;;;22.60;89.80;;;;;;5118281;27;20382;-64
2023/07/21 11:14:18;;;;;;;1.42;0.80;;;22.70;90.10;;;;;;5137231;27;20043;-65
2023/07/21 11:16:52;;;;;;;0.98;0.80;;;22.90;90.30;;;;;;5134915;27;20035;-64
2023/07/21 11:19:19;;;;;;;1.58;0.80;;;23.00;90.10;;;;;;5126021;27;20121;-64
2023/07/21 11:21:46;;;;;;;2.30;1.00;;;22.80;90.30;;;;;;5128579;27;20042;-64
2023/07/21 11:24:16;;;;;;;2.35;1.00;;;22.60;89.40;;;;;;5125142;27;20078;-63
2023/07/21 11:26:42;;;;;;;1.15;0.82;;;22.50;90.30;;;;;;5133953;27;20067;-65
2023/07/21 11:29:08;;;;;;;1.25;0.90;;;22.30;90.60;;;;;;5134156;27;20135;-65
2023/07/21 11:31:36;;;;;;;1.27;1.00;;;22.10;90.60;;;;;;5135999;27;20066;-65
2023/07/21 11:34:03;;;;;;;0.82;0.82;;;22.20;90.60;;;;;;5136122;27;20397;-65
2023/07/21 11:36:30;;;;;;;1.17;1.00;;;22.20;91.20;;;;;;5127024;27;20408;-63
2023/07/21 11:39:10;;;;;;;1.63;0.85;;;22.40;91.60;;;;;;5122074;27;20520;-64
2023/07/21 11:41:43;;;;;;;1.27;1.10;;;22.30;90.60;;;;;;5133349;27;20046;-64
2023/07/21 11:44:35;;;;;;;1.20;1.10;;;22.40;91.10;;;;;;5115744;27;20401;-64
2023/07/21 11:47:07;;;;;;;1.10;0.90;;;22.30;91.00;;;;;;5064650;28;20044;-64
2023/07/21 11:49:40;;;;;;;1.08;0.75;;;22.40;90.50;;;;;;5040205;28;20407;-64
2023/07/21 11:52:08;;;;;;;2.03;1.00;;;22.60;90.70;;;;;;5049697;28;20049;-64
2023/07/21 11:54:42;;;;;;;0.82;0.75;;;22.70;90.70;;;;;;5064214;28;20043;-64
2023/07/21 11:57:09;;;;;;;1.50;1.08;;;22.90;90.70;;;;;;5069590;28;20037;-65
2023/07/21 11:59:35;;;;;;;1.25;0.88;;;22.90;90.10;;;;;;5049700;28;20438;-65
2023/07/21 12:02:06;;;;;;;1.95;0.85;;;22.90;90.50;;;;;;5052075;28;20056;-66
2023/07/21 12:04:33;;;;;;;2.08;1.05;;;22.70;90.00;;;;;;5042947;28;20250;-64
2023/07/21 12:07:00;;;;;;;1.25;0.98;;;22.30;89.50;;;;;;5031964;28;20092;-64
2023/07/21 12:09:26;;;;;;;0.93;0.70;;;22.30;89.50;;;;;;5039531;28;20134;-65
2023/07/21 12:11:56;;;;;;;1.40;0.90;;;22.40;89.90;;;;;;5041958;28;20064;-65
2023/07/21 12:14:23;;;;;;;1.95;0.93;;;22.40;88.40;;;;;;5051511;28;20075;-64
2023/07/21 12:16:50;;;;;;;2.03;0.90;;;22.30;88.60;;;;;;5047554;28;20488;-65
2023/07/21 12:19:16;;;;;;;1.67;0.70;;;22.20;88.60;;;;;;5035407;28;20491;-65
2023/07/21 12:21:42;;;;;;;0.73;0.70;;;22.30;88.60;;;;;;5050964;28;20113;-64
2023/07/21 12:24:07;;;;;;;0.90;0.80;;;22.30;87.10;;;;;;5096323;27;20050;-64
2023/07/21 12:26:33;;;;;;;1.45;0.80;;;22.30;85.60;;;;;;5133988;27;20034;-64
2023/07/21 12:28:59;;;;;;;2.45;0.80;;;22.10;85.20;;;;;;5125860;27;20043;-64
2023/07/21 12:31:25;;;;;;;0.88;0.80;;;22.00;85.90;;;;;;5133737;27;20039;-64
2023/07/21 12:33:51;;;;;;;1.25;0.80;;;22.10;86.20;;;;;;5123188;27;20046;-65
2023/07/21 12:36:20;;;;;;;1.13;0.85;;;22.30;87.20;;;;;;5130659;27;20034;-65
2023/07/21 12:38:46;;;;;;;3.90;0.93;;;22.40;87.40;;;;;;5115471;27;20062;-65
2023/07/21 12:41:12;;;;;;;1.95;0.90;;;22.40;88.10;;;;;;5115337;27;20456;-64
2023/07/21 12:43:38;;;;;;;2.25;0.90;;;22.20;86.50;;;;;;5135084;27;20092;-64
2023/07/21 12:46:05;;;;;;;0.90;0.70;;;21.80;87.10;;;;;;5114103;27;20039;-65
2023/07/21 12:48:32;;;;;;;1.48;0.88;;;21.60;88.10;;;;;;5127578;27;20045;-64
2023/07/21 12:50:58;;;;;;;2.17;0.98;;;21.30;88.60;;;;;;5133463;27;20049;-65